createdAt,value
2022-12-29T00:00:31.583Z,996.814463568
2022-12-29T00:01:31.504Z,996.916054932
2022-12-29T00:02:31.536Z,996.916054932
2022-12-29T00:03:31.618Z,996.916054932
2022-12-29T00:04:31.550Z,996.7128722040001
2022-12-29T00:05:31.530Z,996.61128084
2022-12-29T00:06:31.524Z,996.7128722040001
2022-12-29T00:07:31.495Z,996.814463568
2022-12-29T00:08:32.522Z,996.7128722040001
2022-12-29T00:09:32.506Z,996.814463568
2022-12-29T00:10:32.496Z,996.814463568
2022-12-29T00:11:31.810Z,996.814463568
2022-12-29T00:12:32.556Z,996.61128084
2022-12-29T00:13:32.520Z,996.7128722040001
2022-12-29T00:14:32.590Z,996.814463568
2022-12-29T00:15:31.890Z,996.814463568
2022-12-29T00:16:32.611Z,996.814463568
2022-12-29T00:17:32.507Z,996.916054932
2022-12-29T00:18:32.521Z,996.814463568
2022-12-29T00:19:32.529Z,996.814463568
2022-12-29T00:20:32.499Z,996.7128722040001
2022-12-29T00:21:32.497Z,996.7128722040001
2022-12-29T00:22:32.550Z,996.7128722040001
2022-12-29T00:23:32.581Z,996.61128084
2022-12-29T00:24:32.518Z,996.7128722040001
2022-12-29T00:25:32.519Z,996.814463568
2022-12-29T00:26:32.490Z,996.61128084
2022-12-29T00:27:32.523Z,996.916054932
2022-12-29T00:28:32.505Z,996.7128722040001
2022-12-29T00:29:32.525Z,996.509689476
2022-12-29T00:30:32.497Z,996.7128722040001
2022-12-29T00:31:32.634Z,996.916054932
2022-12-29T00:32:32.540Z,996.7128722040001
2022-12-29T00:33:32.596Z,996.61128084
2022-12-29T00:34:32.488Z,996.7128722040001
2022-12-29T00:35:32.543Z,996.814463568
2022-12-29T00:36:32.511Z,996.814463568
2022-12-29T00:37:32.502Z,996.61128084
2022-12-29T00:38:32.524Z,996.7128722040001
2022-12-29T00:39:32.543Z,996.61128084
2022-12-29T00:40:32.499Z,996.4080981120001
2022-12-29T00:41:32.520Z,996.814463568
2022-12-29T00:42:32.505Z,996.4080981120001
2022-12-29T00:43:32.646Z,996.509689476
2022-12-29T00:44:32.499Z,996.61128084
2022-12-29T00:45:32.549Z,996.509689476
2022-12-29T00:46:32.502Z,996.61128084
2022-12-29T00:47:32.557Z,996.4080981120001
2022-12-29T00:48:32.506Z,996.509689476
2022-12-29T00:49:32.526Z,996.509689476
2022-12-29T00:50:32.502Z,996.916054932
2022-12-29T00:51:32.520Z,996.7128722040001
2022-12-29T00:52:32.536Z,996.916054932
2022-12-29T00:53:32.465Z,996.509689476
2022-12-29T00:54:32.503Z,996.61128084
2022-12-29T00:55:32.515Z,996.509689476
2022-12-29T00:56:32.520Z,996.61128084
2022-12-29T00:57:32.503Z,996.509689476
2022-12-29T00:58:32.503Z,996.509689476
2022-12-29T00:59:32.516Z,996.61128084
2022-12-29T01:00:32.603Z,996.509689476
2022-12-29T01:01:32.817Z,996.509689476
2022-12-29T01:02:32.671Z,996.306506748
2022-12-29T01:03:32.528Z,996.61128084
2022-12-29T01:04:32.572Z,996.7128722040001
2022-12-29T01:05:32.508Z,996.509689476
2022-12-29T01:06:32.487Z,996.4080981120001
2022-12-29T01:07:32.521Z,996.509689476
2022-12-29T01:08:32.512Z,996.509689476
2022-12-29T01:09:32.484Z,996.61128084
2022-12-29T01:10:32.502Z,996.509689476
2022-12-29T01:11:32.538Z,996.4080981120001
2022-12-29T01:12:32.532Z,996.238779172
2022-12-29T01:13:32.499Z,996.4080981120001
2022-12-29T01:14:32.506Z,996.4080981120001
2022-12-29T01:15:32.524Z,996.509689476
2022-12-29T01:16:32.635Z,996.306506748
2022-12-29T01:17:32.502Z,996.509689476
2022-12-29T01:18:32.559Z,996.306506748
2022-12-29T01:19:32.536Z,996.4080981120001
2022-12-29T01:20:32.511Z,996.4080981120001
2022-12-29T01:21:32.493Z,996.509689476
2022-12-29T01:22:32.535Z,996.509689476
2022-12-29T01:23:32.536Z,996.306506748
2022-12-29T01:24:32.522Z,996.306506748
2022-12-29T01:25:32.503Z,996.306506748
2022-12-29T01:26:32.530Z,996.306506748
2022-12-29T01:27:32.493Z,996.238779172
2022-12-29T01:28:32.517Z,996.306506748
2022-12-29T01:29:32.505Z,996.306506748
2022-12-29T01:30:32.524Z,996.306506748
2022-12-29T01:31:32.609Z,996.4080981120001
2022-12-29T01:32:32.504Z,996.306506748
2022-12-29T01:33:32.491Z,996.137187808
2022-12-29T01:34:32.503Z,996.4080981120001
2022-12-29T01:35:32.524Z,996.137187808
2022-12-29T01:36:32.542Z,996.238779172
2022-12-29T01:37:32.489Z,996.4080981120001
2022-12-29T01:38:32.493Z,996.137187808
2022-12-29T01:39:32.505Z,996.238779172
2022-12-29T01:40:32.716Z,996.035596444
2022-12-29T01:41:32.619Z,996.306506748
2022-12-29T01:42:32.692Z,996.238779172
2022-12-29T01:43:32.659Z,996.035596444
2022-12-29T01:44:32.740Z,996.238779172
2022-12-29T01:45:32.676Z,996.035596444
2022-12-29T01:46:32.674Z,996.035596444
2022-12-29T01:47:32.675Z,995.93400508
2022-12-29T01:48:32.668Z,996.035596444
2022-12-29T01:49:32.680Z,996.035596444
2022-12-29T01:50:32.684Z,996.035596444
2022-12-29T01:51:32.603Z,995.832413716
2022-12-29T01:52:32.676Z,996.035596444
2022-12-29T01:53:32.502Z,995.93400508
2022-12-29T01:54:32.495Z,996.035596444
2022-12-29T01:55:32.495Z,996.035596444
2022-12-29T01:56:32.474Z,995.93400508
2022-12-29T01:57:32.500Z,996.137187808
2022-12-29T01:58:32.506Z,996.137187808
2022-12-29T01:59:32.491Z,995.93400508
2022-12-29T02:00:32.529Z,995.93400508
2022-12-29T02:01:32.557Z,996.035596444
2022-12-29T02:02:33.302Z,995.832413716
2022-12-29T02:03:32.495Z,995.93400508
2022-12-29T02:04:32.481Z,995.7308223519999
2022-12-29T02:05:32.494Z,996.035596444
2022-12-29T02:06:32.527Z,995.93400508
2022-12-29T02:07:32.489Z,995.93400508
2022-12-29T02:08:32.506Z,995.832413716
2022-12-29T02:09:32.494Z,995.93400508
2022-12-29T02:10:32.515Z,996.035596444
2022-12-29T02:11:32.501Z,995.7308223519999
2022-12-29T02:12:32.484Z,995.93400508
2022-12-29T02:13:32.467Z,995.832413716
2022-12-29T02:14:32.504Z,995.832413716
2022-12-29T02:15:32.489Z,995.832413716
2022-12-29T02:16:32.595Z,995.7308223519999
2022-12-29T02:17:32.497Z,995.6292309879999
2022-12-29T02:18:32.505Z,995.93400508
2022-12-29T02:19:32.501Z,995.7308223519999
2022-12-29T02:20:32.503Z,995.7308223519999
2022-12-29T02:21:32.461Z,995.527639624
2022-12-29T02:22:32.513Z,995.7308223519999
2022-12-29T02:23:32.552Z,995.7308223519999
2022-12-29T02:24:32.491Z,995.6292309879999
2022-12-29T02:25:32.480Z,995.527639624
2022-12-29T02:26:32.522Z,995.7308223519999
2022-12-29T02:27:32.478Z,995.527639624
2022-12-29T02:28:32.496Z,995.4260482599999
2022-12-29T02:29:32.485Z,995.527639624
2022-12-29T02:30:32.526Z,995.527639624
2022-12-29T02:31:32.565Z,995.527639624
2022-12-29T02:32:32.489Z,995.527639624
2022-12-29T02:33:32.501Z,995.4260482599999
2022-12-29T02:34:32.507Z,995.527639624
2022-12-29T02:35:32.498Z,995.527639624
2022-12-29T02:36:32.499Z,995.4260482599999
2022-12-29T02:37:32.489Z,995.4260482599999
2022-12-29T02:38:32.486Z,995.832413716
2022-12-29T02:39:32.526Z,995.7308223519999
2022-12-29T02:40:32.498Z,995.527639624
2022-12-29T02:41:32.519Z,995.4260482599999
2022-12-29T02:42:32.528Z,995.527639624
2022-12-29T02:43:32.488Z,995.4260482599999
2022-12-29T02:44:32.503Z,995.527639624
2022-12-29T02:45:32.595Z,995.6292309879999
2022-12-29T02:46:32.506Z,995.4260482599999
2022-12-29T02:47:32.640Z,995.6292309879999
2022-12-29T02:48:32.531Z,995.3244568959999
2022-12-29T02:49:32.452Z,995.6292309879999
2022-12-29T02:50:32.496Z,995.4260482599999
2022-12-29T02:51:32.514Z,995.4260482599999
2022-12-29T02:52:32.505Z,995.4260482599999
2022-12-29T02:53:32.561Z,995.4260482599999
2022-12-29T02:54:32.504Z,995.4260482599999
2022-12-29T02:55:32.499Z,995.222865532
2022-12-29T02:56:32.525Z,995.4260482599999
2022-12-29T02:57:32.474Z,995.222865532
2022-12-29T02:58:32.515Z,995.222865532
2022-12-29T02:59:32.490Z,995.3244568959999
2022-12-29T03:00:32.571Z,995.222865532
2022-12-29T03:01:32.771Z,995.222865532
2022-12-29T03:02:32.717Z,995.222865532
2022-12-29T03:03:32.567Z,995.4260482599999
2022-12-29T03:04:32.505Z,995.222865532
2022-12-29T03:05:32.474Z,995.222865532
2022-12-29T03:06:32.536Z,995.222865532
2022-12-29T03:07:32.513Z,995.4260482599999
2022-12-29T03:08:32.504Z,995.4260482599999
2022-12-29T03:09:32.447Z,995.4260482599999
2022-12-29T03:10:32.504Z,995.3244568959999
2022-12-29T03:11:32.522Z,995.527639624
2022-12-29T03:12:32.660Z,995.3244568959999
2022-12-29T03:13:32.601Z,995.4260482599999
2022-12-29T03:14:32.659Z,995.527639624
2022-12-29T03:15:32.605Z,995.3244568959999
2022-12-29T03:16:32.599Z,995.527639624
2022-12-29T03:17:32.636Z,995.222865532
2022-12-29T03:18:32.551Z,995.3244568959999
2022-12-29T03:19:32.640Z,995.3244568959999
2022-12-29T03:20:32.774Z,995.3244568959999
2022-12-29T03:21:32.624Z,995.3244568959999
2022-12-29T03:22:32.633Z,995.527639624
2022-12-29T03:23:32.532Z,995.3244568959999
2022-12-29T03:24:32.619Z,995.3244568959999
2022-12-29T03:25:32.675Z,994.91809144
2022-12-29T03:26:32.476Z,995.222865532
2022-12-29T03:27:32.630Z,995.0196828039999
2022-12-29T03:28:32.577Z,995.222865532
2022-12-29T03:29:32.557Z,995.222865532
2022-12-29T03:30:32.645Z,995.0196828039999
2022-12-29T03:31:32.636Z,995.222865532
2022-12-29T03:32:32.583Z,994.8165000759999
2022-12-29T03:33:32.518Z,995.0196828039999
2022-12-29T03:34:32.593Z,995.1212741679999
2022-12-29T03:35:32.682Z,995.1212741679999
2022-12-29T03:36:32.613Z,995.0196828039999
2022-12-29T03:37:32.490Z,995.0196828039999
2022-12-29T03:38:32.590Z,995.1212741679999
2022-12-29T03:39:32.491Z,995.1212741679999
2022-12-29T03:40:32.631Z,995.0196828039999
2022-12-29T03:41:32.553Z,995.222865532
2022-12-29T03:42:32.504Z,995.222865532
2022-12-29T03:43:32.612Z,995.1212741679999
2022-12-29T03:44:32.602Z,995.1212741679999
2022-12-29T03:45:32.565Z,994.91809144
2022-12-29T03:46:32.531Z,994.91809144
2022-12-29T03:47:32.545Z,994.91809144
2022-12-29T03:48:32.442Z,994.91809144
2022-12-29T03:49:32.481Z,995.0196828039999
2022-12-29T03:50:32.486Z,995.0196828039999
2022-12-29T03:51:32.494Z,995.0196828039999
2022-12-29T03:52:32.482Z,994.91809144
2022-12-29T03:53:32.489Z,995.0196828039999
2022-12-29T03:54:32.486Z,995.0196828039999
2022-12-29T03:55:32.610Z,994.91809144
2022-12-29T03:56:32.486Z,994.7149087119999
2022-12-29T03:57:32.483Z,994.91809144
2022-12-29T03:58:32.474Z,994.91809144
2022-12-29T03:59:32.503Z,994.613317348
2022-12-29T04:00:32.493Z,994.8165000759999
2022-12-29T04:01:32.666Z,994.8165000759999
2022-12-29T04:02:32.713Z,994.8165000759999
2022-12-29T04:03:32.567Z,994.8165000759999
2022-12-29T04:04:32.462Z,994.7149087119999
2022-12-29T04:05:32.583Z,994.8165000759999
2022-12-29T04:06:32.519Z,994.7149087119999
2022-12-29T04:07:32.512Z,994.5117259839999
2022-12-29T04:08:32.461Z,994.5117259839999
2022-12-29T04:09:32.490Z,994.5117259839999
2022-12-29T04:10:32.664Z,994.7149087119999
2022-12-29T04:11:33.350Z,994.5117259839999
2022-12-29T04:12:32.456Z,994.613317348
2022-12-29T04:13:32.491Z,994.4101346199999
2022-12-29T04:14:32.516Z,994.308543256
2022-12-29T04:15:32.550Z,994.7149087119999
2022-12-29T04:16:32.588Z,994.308543256
2022-12-29T04:17:32.488Z,994.4101346199999
2022-12-29T04:18:32.504Z,994.5117259839999
2022-12-29T04:19:32.478Z,994.4101346199999
2022-12-29T04:20:32.501Z,994.308543256
2022-12-29T04:21:32.595Z,994.4101346199999
2022-12-29T04:22:32.490Z,994.2069518920001
2022-12-29T04:23:32.445Z,994.5117259839999
2022-12-29T04:24:32.546Z,994.4101346199999
2022-12-29T04:25:32.479Z,994.4101346199999
2022-12-29T04:26:32.466Z,994.4101346199999
2022-12-29T04:27:32.478Z,994.308543256
2022-12-29T04:28:32.492Z,994.4101346199999
2022-12-29T04:29:32.481Z,994.5117259839999
2022-12-29T04:30:32.495Z,994.308543256
2022-12-29T04:31:32.517Z,994.308543256
2022-12-29T04:32:32.511Z,994.4101346199999
2022-12-29T04:33:32.477Z,994.2069518920001
2022-12-29T04:34:32.487Z,994.2069518920001
2022-12-29T04:35:32.449Z,994.2069518920001
2022-12-29T04:36:32.486Z,994.4101346199999
2022-12-29T04:37:32.471Z,994.2069518920001
2022-12-29T04:38:32.474Z,994.2069518920001
2022-12-29T04:39:32.477Z,994.2069518920001
2022-12-29T04:40:32.522Z,994.308543256
2022-12-29T04:41:32.458Z,993.936041588
2022-12-29T04:42:32.469Z,994.2069518920001
2022-12-29T04:43:32.704Z,994.308543256
2022-12-29T04:44:32.493Z,994.2069518920001
2022-12-29T04:45:32.464Z,994.2069518920001
2022-12-29T04:46:32.557Z,994.2069518920001
2022-12-29T04:47:32.515Z,994.2069518920001
2022-12-29T04:48:32.517Z,994.1392243160001
2022-12-29T04:49:32.499Z,994.2069518920001
2022-12-29T04:50:32.514Z,994.1392243160001
2022-12-29T04:51:32.480Z,994.308543256
2022-12-29T04:52:32.492Z,994.308543256
2022-12-29T04:53:32.519Z,994.2069518920001
2022-12-29T04:54:32.475Z,993.936041588
2022-12-29T04:55:32.542Z,993.8344502239999
2022-12-29T04:56:32.483Z,994.2069518920001
2022-12-29T04:57:32.508Z,994.2069518920001
2022-12-29T04:58:32.478Z,994.037632952
2022-12-29T04:59:32.467Z,994.1392243160001
2022-12-29T05:00:32.473Z,994.1392243160001
2022-12-29T05:01:32.602Z,994.1392243160001
2022-12-29T05:02:32.773Z,994.2069518920001
2022-12-29T05:03:32.630Z,993.936041588
2022-12-29T05:04:32.498Z,993.936041588
2022-12-29T05:05:32.611Z,994.2069518920001
2022-12-29T05:06:32.494Z,993.936041588
2022-12-29T05:07:32.475Z,993.936041588
2022-12-29T05:08:32.524Z,994.037632952
2022-12-29T05:09:32.547Z,994.037632952
2022-12-29T05:10:32.471Z,993.936041588
2022-12-29T05:11:32.459Z,994.037632952
2022-12-29T05:12:32.505Z,993.8344502239999
2022-12-29T05:13:32.467Z,993.8344502239999
2022-12-29T05:14:32.492Z,993.936041588
2022-12-29T05:15:32.492Z,993.936041588
2022-12-29T05:16:32.555Z,993.936041588
2022-12-29T05:17:32.488Z,993.8344502239999
2022-12-29T05:18:32.474Z,994.037632952
2022-12-29T05:19:32.465Z,993.8344502239999
2022-12-29T05:20:32.558Z,993.936041588
2022-12-29T05:21:32.456Z,993.8344502239999
2022-12-29T05:22:32.492Z,994.1392243160001
2022-12-29T05:23:32.516Z,993.936041588
2022-12-29T05:24:32.482Z,993.936041588
2022-12-29T05:25:32.504Z,993.8344502239999
2022-12-29T05:26:32.536Z,993.8344502239999
2022-12-29T05:27:32.519Z,993.936041588
2022-12-29T05:28:32.479Z,993.8344502239999
2022-12-29T05:29:32.500Z,994.037632952
2022-12-29T05:30:32.499Z,993.936041588
2022-12-29T05:31:32.566Z,993.936041588
2022-12-29T05:32:32.486Z,993.8344502239999
2022-12-29T05:33:32.457Z,993.73285886
2022-12-29T05:34:32.483Z,993.8344502239999
2022-12-29T05:35:32.467Z,994.037632952
2022-12-29T05:36:37.542Z,993.936041588
2022-12-29T05:37:32.455Z,993.936041588
2022-12-29T05:38:32.483Z,993.936041588
2022-12-29T05:39:32.453Z,993.73285886
2022-12-29T05:40:32.474Z,993.631267496
2022-12-29T05:41:32.501Z,993.8344502239999
2022-12-29T05:42:32.487Z,993.8344502239999
2022-12-29T05:43:32.469Z,993.631267496
2022-12-29T05:44:32.535Z,993.631267496
2022-12-29T05:45:32.461Z,993.8344502239999
2022-12-29T05:46:32.564Z,993.73285886
2022-12-29T05:47:32.481Z,993.73285886
2022-12-29T05:48:37.688Z,993.73285886
2022-12-29T05:49:32.462Z,993.5296761319998
2022-12-29T05:50:32.511Z,993.73285886
2022-12-29T05:51:32.466Z,993.631267496
2022-12-29T05:52:32.522Z,993.8344502239999
2022-12-29T05:53:32.448Z,993.5296761319998
2022-12-29T05:54:32.506Z,993.73285886
2022-12-29T05:55:32.653Z,993.631267496
2022-12-29T05:56:32.474Z,993.631267496
2022-12-29T05:57:32.458Z,993.631267496
2022-12-29T05:58:32.477Z,993.631267496
2022-12-29T05:59:32.468Z,993.5296761319998
2022-12-29T06:00:32.465Z,993.631267496
2022-12-29T06:01:32.571Z,993.5296761319998
2022-12-29T06:02:32.575Z,993.326493404
2022-12-29T06:03:32.550Z,993.428084768
2022-12-29T06:04:32.471Z,993.631267496
2022-12-29T06:05:32.452Z,993.428084768
2022-12-29T06:06:32.469Z,993.428084768
2022-12-29T06:07:32.480Z,993.428084768
2022-12-29T06:08:32.463Z,993.631267496
2022-12-29T06:09:32.442Z,993.428084768
2022-12-29T06:10:32.528Z,993.326493404
2022-12-29T06:11:32.479Z,993.326493404
2022-12-29T06:12:32.476Z,993.428084768
2022-12-29T06:13:32.444Z,993.428084768
2022-12-29T06:14:32.485Z,993.428084768
2022-12-29T06:15:32.452Z,993.428084768
2022-12-29T06:16:32.539Z,993.428084768
2022-12-29T06:17:32.465Z,993.2249020399998
2022-12-29T06:18:32.479Z,993.2249020399998
2022-12-29T06:19:32.470Z,993.326493404
2022-12-29T06:20:32.463Z,993.326493404
2022-12-29T06:21:32.478Z,993.2249020399998
2022-12-29T06:22:32.494Z,993.428084768
2022-12-29T06:23:32.488Z,993.2249020399998
2022-12-29T06:24:32.471Z,993.326493404
2022-12-29T06:25:32.465Z,993.1233106760001
2022-12-29T06:26:32.480Z,993.2249020399998
2022-12-29T06:27:32.561Z,993.1233106760001
2022-12-29T06:28:32.464Z,993.428084768
2022-12-29T06:29:32.602Z,993.2249020399998
2022-12-29T06:30:32.508Z,993.326493404
2022-12-29T06:31:32.472Z,993.2249020399998
2022-12-29T06:32:32.472Z,993.0217193120001
2022-12-29T06:33:32.452Z,993.1233106760001
2022-12-29T06:34:32.505Z,993.2249020399998
2022-12-29T06:35:32.476Z,993.1233106760001
2022-12-29T06:36:32.462Z,993.0217193120001
2022-12-29T06:37:32.497Z,993.1233106760001
2022-12-29T06:38:32.468Z,993.1233106760001
2022-12-29T06:39:32.462Z,993.1233106760001
2022-12-29T06:40:32.481Z,992.920127948
2022-12-29T06:41:32.672Z,993.0217193120001
2022-12-29T06:42:32.495Z,993.1233106760001
2022-12-29T06:43:32.452Z,993.0217193120001
2022-12-29T06:44:32.464Z,993.2249020399998
2022-12-29T06:45:32.538Z,993.0217193120001
2022-12-29T06:46:32.708Z,993.2249020399998
2022-12-29T06:47:32.481Z,993.1233106760001
2022-12-29T06:48:32.473Z,993.1233106760001
2022-12-29T06:49:32.456Z,993.1233106760001
2022-12-29T06:50:32.468Z,993.1233106760001
2022-12-29T06:51:32.469Z,993.0217193120001
2022-12-29T06:52:32.487Z,993.2249020399998
2022-12-29T06:53:32.451Z,993.2249020399998
2022-12-29T06:54:32.471Z,993.0217193120001
2022-12-29T06:55:32.461Z,993.1233106760001
2022-12-29T06:56:32.459Z,993.2249020399998
2022-12-29T06:57:32.600Z,993.2249020399998
2022-12-29T06:58:32.485Z,993.1233106760001
2022-12-29T06:59:32.445Z,993.0217193120001
2022-12-29T07:00:32.468Z,993.1233106760001
2022-12-29T07:01:32.590Z,993.326493404
2022-12-29T07:02:32.585Z,993.0217193120001
2022-12-29T07:03:32.517Z,993.326493404
2022-12-29T07:04:32.513Z,993.326493404
2022-12-29T07:05:32.474Z,993.2249020399998
2022-12-29T07:06:32.478Z,993.0217193120001
2022-12-29T07:07:32.457Z,993.1233106760001
2022-12-29T07:08:32.899Z,993.2249020399998
2022-12-29T07:09:32.449Z,993.2249020399998
2022-12-29T07:10:32.519Z,993.0217193120001
2022-12-29T07:11:32.516Z,993.1233106760001
2022-12-29T07:12:32.447Z,993.0217193120001
2022-12-29T07:13:32.479Z,992.920127948
2022-12-29T07:14:35.971Z,993.2249020399998
2022-12-29T07:15:32.454Z,993.0217193120001
2022-12-29T07:16:32.631Z,992.920127948
2022-12-29T07:17:32.447Z,992.7169452200001
2022-12-29T07:18:32.469Z,992.920127948
2022-12-29T07:19:32.478Z,992.920127948
2022-12-29T07:20:32.489Z,992.8185365840001
2022-12-29T07:21:32.475Z,992.920127948
2022-12-29T07:22:32.463Z,992.920127948
2022-12-29T07:23:32.478Z,992.8185365840001
2022-12-29T07:24:32.546Z,992.920127948
2022-12-29T07:25:32.462Z,992.8185365840001
2022-12-29T07:26:36.276Z,993.1233106760001
2022-12-29T07:27:32.480Z,992.7169452200001
2022-12-29T07:28:32.493Z,992.8185365840001
2022-12-29T07:29:32.514Z,992.8185365840001
2022-12-29T07:30:32.453Z,992.7169452200001
2022-12-29T07:31:32.484Z,992.8185365840001
2022-12-29T07:32:32.517Z,992.8185365840001
2022-12-29T07:33:32.434Z,992.7169452200001
2022-12-29T07:34:32.473Z,992.7169452200001
2022-12-29T07:35:32.459Z,992.8185365840001
2022-12-29T07:36:34.570Z,992.513762492
2022-12-29T07:37:32.462Z,992.7169452200001
2022-12-29T07:38:32.478Z,992.615353856
2022-12-29T07:39:32.471Z,992.615353856
2022-12-29T07:40:32.449Z,992.615353856
2022-12-29T07:41:32.438Z,992.513762492
2022-12-29T07:42:32.491Z,992.7169452200001
2022-12-29T07:43:32.544Z,992.310579764
2022-12-29T07:44:32.492Z,992.4121711280001
2022-12-29T07:45:32.539Z,992.4121711280001
2022-12-29T07:46:53.709Z,992.615353856
2022-12-29T07:47:32.545Z,992.4121711280001
2022-12-29T07:48:32.479Z,992.513762492
2022-12-29T07:49:32.456Z,992.513762492
2022-12-29T07:50:32.525Z,992.513762492
2022-12-29T07:51:32.443Z,992.513762492
2022-12-29T07:52:32.474Z,992.615353856
2022-12-29T07:53:32.439Z,992.310579764
2022-12-29T07:54:32.528Z,992.4121711280001
2022-12-29T07:55:32.490Z,992.615353856
2022-12-29T07:56:32.475Z,992.513762492
2022-12-29T07:57:32.560Z,992.2089884
2022-12-29T07:58:32.475Z,992.310579764
2022-12-29T07:59:32.465Z,992.310579764
2022-12-29T08:00:32.594Z,992.4121711280001
2022-12-29T08:01:32.573Z,992.513762492
2022-12-29T08:02:32.543Z,992.310579764
2022-12-29T08:03:32.521Z,992.4121711280001
2022-12-29T08:04:32.539Z,992.310579764
2022-12-29T08:05:32.468Z,992.513762492
2022-12-29T08:06:33.473Z,992.310579764
2022-12-29T08:07:32.459Z,992.03966946
2022-12-29T08:08:32.468Z,992.4121711280001
2022-12-29T08:09:32.553Z,992.2089884
2022-12-29T08:10:32.607Z,992.03966946
2022-12-29T08:11:32.476Z,992.03966946
2022-12-29T08:12:32.503Z,992.03966946
2022-12-29T08:13:32.470Z,992.03966946
2022-12-29T08:14:32.466Z,992.03966946
2022-12-29T08:15:32.861Z,992.2089884
2022-12-29T08:16:32.525Z,991.9380780960001
2022-12-29T08:17:32.489Z,991.9380780960001
2022-12-29T08:18:32.446Z,991.9380780960001
2022-12-29T08:19:32.492Z,991.9380780960001
2022-12-29T08:20:32.456Z,991.836486732
2022-12-29T08:21:32.472Z,991.836486732
2022-12-29T08:22:32.465Z,992.03966946
2022-12-29T08:23:32.559Z,992.1073970360001
2022-12-29T08:24:32.497Z,992.03966946
2022-12-29T08:25:32.451Z,992.1073970360001
2022-12-29T08:26:32.434Z,991.836486732
2022-12-29T08:27:32.516Z,992.03966946
2022-12-29T08:28:32.462Z,991.836486732
2022-12-29T08:29:32.480Z,991.836486732
2022-12-29T08:30:32.511Z,991.9380780960001
2022-12-29T08:31:32.537Z,992.03966946
2022-12-29T08:32:32.479Z,991.9380780960001
2022-12-29T08:33:32.467Z,991.9380780960001
2022-12-29T08:34:32.484Z,992.03966946
2022-12-29T08:35:32.571Z,991.836486732
2022-12-29T08:36:32.448Z,991.734895368
2022-12-29T08:37:32.457Z,992.03966946
2022-12-29T08:38:32.432Z,992.1073970360001
2022-12-29T08:39:32.479Z,991.836486732
2022-12-29T08:40:32.460Z,991.9380780960001
2022-12-29T08:41:32.530Z,991.9380780960001
2022-12-29T08:42:32.419Z,991.9380780960001
2022-12-29T08:43:32.453Z,991.9380780960001
2022-12-29T08:44:32.454Z,991.836486732
2022-12-29T08:45:32.448Z,991.836486732
2022-12-29T08:46:32.528Z,991.836486732
2022-12-29T08:47:32.508Z,991.734895368
2022-12-29T08:48:32.451Z,991.836486732
2022-12-29T08:49:32.441Z,991.9380780960001
2022-12-29T08:50:32.445Z,991.6333040040001
2022-12-29T08:51:32.491Z,991.6333040040001
2022-12-29T08:52:32.472Z,991.734895368
2022-12-29T08:53:32.520Z,991.6333040040001
2022-12-29T08:54:32.491Z,991.53171264
2022-12-29T08:55:32.522Z,991.734895368
2022-12-29T08:56:32.475Z,991.53171264
2022-12-29T08:57:32.565Z,991.836486732
2022-12-29T08:58:32.475Z,991.6333040040001
2022-12-29T08:59:32.487Z,991.6333040040001
2022-12-29T09:00:32.464Z,991.6333040040001
2022-12-29T09:01:32.626Z,991.6333040040001
2022-12-29T09:02:32.733Z,991.836486732
2022-12-29T09:04:12.231Z,991.9380780960001
2022-12-29T09:04:32.835Z,991.734895368
2022-12-29T09:05:32.461Z,991.6333040040001
2022-12-29T09:06:36.584Z,991.6333040040001
2022-12-29T09:07:32.488Z,991.6333040040001
2022-12-29T09:08:32.442Z,991.6333040040001
2022-12-29T09:09:32.459Z,991.430121276
2022-12-29T09:10:32.446Z,991.430121276
2022-12-29T09:11:32.492Z,991.3285299120001
2022-12-29T09:12:36.355Z,991.3285299120001
2022-12-29T09:13:32.460Z,991.3285299120001
2022-12-29T09:14:32.436Z,991.430121276
2022-12-29T09:15:32.534Z,991.3285299120001
2022-12-29T09:16:32.615Z,991.430121276
2022-12-29T09:17:32.462Z,991.226938548
2022-12-29T09:18:32.458Z,991.226938548
2022-12-29T09:19:32.440Z,991.226938548
2022-12-29T09:20:32.535Z,991.3285299120001
2022-12-29T09:21:32.541Z,991.226938548
2022-12-29T09:22:32.451Z,991.3285299120001
2022-12-29T09:23:32.432Z,991.226938548
2022-12-29T09:24:32.452Z,991.0237558200001
2022-12-29T09:25:32.447Z,991.226938548
2022-12-29T09:26:32.537Z,990.922164456
2022-12-29T09:27:32.443Z,991.0237558200001
2022-12-29T09:28:32.573Z,991.125347184
2022-12-29T09:29:32.442Z,991.0237558200001
2022-12-29T09:30:32.453Z,991.125347184
2022-12-29T09:31:32.493Z,990.922164456
2022-12-29T09:32:33.995Z,991.125347184
2022-12-29T09:33:32.451Z,991.226938548
2022-12-29T09:34:32.444Z,991.125347184
2022-12-29T09:35:32.417Z,991.0237558200001
2022-12-29T09:36:32.455Z,991.0237558200001
2022-12-29T09:37:32.455Z,990.922164456
2022-12-29T09:38:32.450Z,991.226938548
2022-12-29T09:39:32.417Z,990.922164456
2022-12-29T09:40:32.451Z,991.0237558200001
2022-12-29T09:41:32.437Z,990.922164456
2022-12-29T09:42:32.497Z,991.0237558200001
2022-12-29T09:43:32.444Z,990.820573092
2022-12-29T09:44:32.504Z,990.820573092
2022-12-29T09:45:32.455Z,990.922164456
2022-12-29T09:46:32.490Z,990.7189817279999
2022-12-29T09:47:32.460Z,990.922164456